createdAt,value
2023-07-02T00:00:07.719Z,100.00
2023-07-02T00:02:34.796Z,100.00
2023-07-02T00:05:01.538Z,100.00
2023-07-02T00:07:28.685Z,100.00
2023-07-02T00:09:55.621Z,100.00
2023-07-02T00:12:22.298Z,100.00
2023-07-02T00:14:49.052Z,100.00
2023-07-02T00:17:15.827Z,100.00
2023-07-02T00:19:43.163Z,100.00
2023-07-02T00:22:10.579Z,100.00
2023-07-02T00:24:38.021Z,100.00
2023-07-02T00:27:04.928Z,100.00
2023-07-02T00:29:31.654Z,100.00
2023-07-02T00:31:58.317Z,100.00
2023-07-02T00:34:26.198Z,100.00
2023-07-02T00:36:53.371Z,100.00
2023-07-02T00:39:21.091Z,100.00
2023-07-02T00:41:47.860Z,100.00
2023-07-02T00:44:15.641Z,100.00
2023-07-02T00:46:42.494Z,100.00
2023-07-02T00:49:09.346Z,100.00
2023-07-02T00:51:36.089Z,100.00
2023-07-02T00:54:02.858Z,100.00
2023-07-02T00:56:29.666Z,100.00
2023-07-02T00:58:59.919Z,100.00
2023-07-02T01:01:29.484Z,100.00
2023-07-02T01:04:03.280Z,100.00
2023-07-02T01:06:31.651Z,100.00
2023-07-02T01:08:59.964Z,100.00
2023-07-02T01:11:29.156Z,100.00
2023-07-02T01:14:02.488Z,100.00
2023-07-02T01:16:32.026Z,100.00
2023-07-02T01:18:58.842Z,100.00
2023-07-02T01:21:26.349Z,100.00
2023-07-02T01:23:53.064Z,100.00
2023-07-02T01:26:20.042Z,100.00
2023-07-02T01:28:46.755Z,100.00
2023-07-02T01:31:13.507Z,100.00
2023-07-02T01:33:40.269Z,100.00
2023-07-02T01:36:07.076Z,100.00
2023-07-02T01:38:33.749Z,100.00
2023-07-02T01:41:00.405Z,100.00
2023-07-02T01:43:27.083Z,100.00
2023-07-02T01:45:54.036Z,100.00
2023-07-02T01:48:20.978Z,100.00
2023-07-02T01:50:47.929Z,100.00
2023-07-02T01:53:14.823Z,100.00
2023-07-02T01:55:41.560Z,100.00
2023-07-02T01:58:08.301Z,100.00
2023-07-02T02:00:35.062Z,100.00
2023-07-02T02:03:01.872Z,100.00
2023-07-02T02:05:28.696Z,100.00
2023-07-02T02:07:55.986Z,100.00
2023-07-02T02:10:22.692Z,100.00
2023-07-02T02:12:49.396Z,100.00
2023-07-02T02:15:16.261Z,100.00
2023-07-02T02:17:42.937Z,100.00
2023-07-02T02:20:10.100Z,100.00
2023-07-02T02:22:36.828Z,100.00
2023-07-02T02:25:04.649Z,100.00
2023-07-02T02:27:31.789Z,100.00
2023-07-02T02:29:59.801Z,100.00
2023-07-02T02:32:26.603Z,100.00
2023-07-02T02:34:53.429Z,100.00
2023-07-02T02:37:22.710Z,100.00
2023-07-02T02:39:49.372Z,100.00
2023-07-02T02:42:16.015Z,100.00
2023-07-02T02:44:42.679Z,100.00
2023-07-02T02:47:09.517Z,100.00
2023-07-02T02:49:38.712Z,100.00
2023-07-02T02:52:05.492Z,100.00
2023-07-02T02:54:32.171Z,100.00
2023-07-02T02:56:58.872Z,100.00
2023-07-02T02:59:26.812Z,100.00
2023-07-02T03:01:53.628Z,100.00
2023-07-02T03:04:24.989Z,100.00
2023-07-02T03:06:53.905Z,100.00
2023-07-02T03:09:20.896Z,100.00
2023-07-02T03:11:48.610Z,100.00
2023-07-02T03:14:15.999Z,100.00
2023-07-02T03:16:46.381Z,100.00
2023-07-02T03:19:15.961Z,100.00
2023-07-02T03:21:45.986Z,100.00
2023-07-02T03:24:14.379Z,100.00
2023-07-02T03:26:41.921Z,100.00
2023-07-02T03:29:08.751Z,100.00
2023-07-02T03:31:35.538Z,100.00
2023-07-02T03:34:09.112Z,100.00
2023-07-02T03:36:36.253Z,100.00
2023-07-02T03:39:03.331Z,100.00
2023-07-02T03:41:30.046Z,100.00
2023-07-02T03:43:56.767Z,100.00
2023-07-02T03:46:23.510Z,100.00
2023-07-02T03:48:50.208Z,100.00
2023-07-02T03:51:17.174Z,100.00
2023-07-02T03:53:44.004Z,100.00
2023-07-02T03:56:10.752Z,100.00
2023-07-02T03:58:37.445Z,100.00
2023-07-02T04:01:04.142Z,100.00
2023-07-02T04:03:31.009Z,100.00
2023-07-02T04:05:57.813Z,100.00
2023-07-02T04:08:26.066Z,100.00
2023-07-02T04:10:52.764Z,100.00
2023-07-02T04:13:19.592Z,100.00
2023-07-02T04:15:46.288Z,100.00
2023-07-02T04:18:13.019Z,100.00
2023-07-02T04:20:39.828Z,100.00
2023-07-02T04:23:07.267Z,100.00
2023-07-02T04:25:58.567Z,100.00
2023-07-02T04:28:21.503Z,100.00
2023-07-02T04:30:51.180Z,100.00
2023-07-02T04:33:18.768Z,100.00
2023-07-02T04:35:45.758Z,100.00
2023-07-02T04:38:13.600Z,100.00
2023-07-02T04:40:40.483Z,100.00
2023-07-02T04:43:07.383Z,100.00
2023-07-02T04:45:37.560Z,100.00
2023-07-02T04:48:05.442Z,100.00
2023-07-02T04:50:32.324Z,100.00
2023-07-02T04:52:59.093Z,100.00
2023-07-02T04:55:25.846Z,100.00
2023-07-02T04:57:52.639Z,100.00
2023-07-02T05:00:20.065Z,100.00
2023-07-02T05:02:46.867Z,100.00
2023-07-02T05:05:13.652Z,100.00
2023-07-02T05:07:41.902Z,100.00
2023-07-02T05:10:09.065Z,100.00
2023-07-02T05:12:35.849Z,100.00
2023-07-02T05:15:02.607Z,100.00
2023-07-02T05:17:30.520Z,100.00
2023-07-02T05:19:57.562Z,100.00
2023-07-02T05:22:24.819Z,100.00
2023-07-02T05:24:51.759Z,100.00
2023-07-02T05:27:18.579Z,100.00
2023-07-02T05:29:45.573Z,100.00
2023-07-02T05:32:12.602Z,100.00
2023-07-02T05:34:39.407Z,100.00
2023-07-02T05:37:07.035Z,100.00
2023-07-02T05:39:35.442Z,100.00
2023-07-02T05:42:02.211Z,100.00
2023-07-02T05:44:29.045Z,100.00
2023-07-02T05:46:55.890Z,100.00
2023-07-02T05:49:22.840Z,100.00
2023-07-02T05:51:49.896Z,100.00
2023-07-02T05:54:16.657Z,100.00
2023-07-02T05:56:43.480Z,100.00
2023-07-02T05:59:10.314Z,100.00
2023-07-02T06:01:37.921Z,100.00
2023-07-02T06:04:05.012Z,100.00
2023-07-02T06:06:31.995Z,100.00
2023-07-02T06:08:59.019Z,100.00
2023-07-02T06:11:25.881Z,100.00
2023-07-02T06:13:52.637Z,100.00
2023-07-02T06:16:19.638Z,100.00
2023-07-02T06:18:47.606Z,100.00
2023-07-02T06:21:14.406Z,100.00
2023-07-02T06:23:44.949Z,100.00
2023-07-02T06:26:11.846Z,100.00
2023-07-02T06:28:39.854Z,100.00
2023-07-02T06:31:06.768Z,100.00
2023-07-02T06:33:33.606Z,100.00
2023-07-02T06:36:00.447Z,100.00
2023-07-02T06:38:27.288Z,100.00
2023-07-02T06:40:54.106Z,100.00
2023-07-02T06:43:21.050Z,98.43
2023-07-02T06:45:47.914Z,100.00
2023-07-02T06:48:19.062Z,94.25
2023-07-02T06:50:47.180Z,97.84
2023-07-02T06:53:14.543Z,92.85
2023-07-02T06:55:41.260Z,86.03
2023-07-02T06:58:08.437Z,88.42
2023-07-02T07:00:38.020Z,91.01
2023-07-02T07:03:05.585Z,87.14
2023-07-02T07:05:32.983Z,84.46
2023-07-02T07:08:03.066Z,82.98
2023-07-02T07:10:35.214Z,82.28
2023-07-02T07:13:05.804Z,81.78
2023-07-02T07:15:34.889Z,83.84
2023-07-02T07:18:02.262Z,79.00
2023-07-02T07:20:29.321Z,81.38
2023-07-02T07:22:56.230Z,79.95
2023-07-02T07:25:23.079Z,79.12
2023-07-02T07:27:50.033Z,84.19
2023-07-02T07:30:16.802Z,79.62
2023-07-02T07:32:43.521Z,81.10
2023-07-02T07:35:10.259Z,77.38
2023-07-02T07:37:37.405Z,75.23
2023-07-02T07:40:24.185Z,79.25
2023-07-02T07:42:50.998Z,73.16
2023-07-02T07:45:17.825Z,70.64
2023-07-02T07:47:45.180Z,72.61
2023-07-02T07:50:12.262Z,69.85
2023-07-02T07:52:43.042Z,71.22
2023-07-02T07:55:10.367Z,70.46
2023-07-02T07:57:38.183Z,71.27
2023-07-02T08:00:08.201Z,71.87
2023-07-02T08:02:35.241Z,73.69
2023-07-02T08:05:02.522Z,72.60
2023-07-02T08:07:29.244Z,73.52
2023-07-02T08:09:55.948Z,75.40
2023-07-02T08:12:22.670Z,71.43
2023-07-02T08:14:50.393Z,67.84
2023-07-02T08:17:17.093Z,68.31
2023-07-02T08:19:43.892Z,66.81
2023-07-02T08:22:10.887Z,64.16
2023-07-02T08:24:37.708Z,64.25
2023-07-02T08:27:05.163Z,63.25
2023-07-02T08:29:34.364Z,60.80
2023-07-02T08:32:01.322Z,62.35
2023-07-02T08:34:31.212Z,56.54
2023-07-02T08:36:58.191Z,61.74
2023-07-02T08:39:24.848Z,62.10
2023-07-02T08:41:53.142Z,55.39
2023-07-02T08:44:21.827Z,61.31
2023-07-02T08:46:52.035Z,61.05
2023-07-02T08:49:19.850Z,58.42
2023-07-02T08:51:47.744Z,57.64
2023-07-02T08:54:15.506Z,54.70
2023-07-02T08:56:42.281Z,58.99
2023-07-02T08:59:12.693Z,56.70
2023-07-02T09:01:47.321Z,48.67
2023-07-02T09:04:34.968Z,46.18
2023-07-02T09:07:07.140Z,49.25
2023-07-02T09:09:34.372Z,47.53
2023-07-02T09:12:01.772Z,49.87
2023-07-02T09:14:31.336Z,48.78
2023-07-02T09:17:11.048Z,46.72
2023-07-02T09:19:48.867Z,48.22
2023-07-02T09:22:17.587Z,48.34
2023-07-02T09:24:54.238Z,49.02
2023-07-02T09:27:22.012Z,50.05
2023-07-02T09:29:55.289Z,50.63
2023-07-02T09:32:29.445Z,48.59
2023-07-02T09:34:59.348Z,50.20
2023-07-02T09:37:26.291Z,51.33
2023-07-02T09:39:53.633Z,51.72
2023-07-02T09:42:21.292Z,51.80
2023-07-02T09:44:48.388Z,53.80
2023-07-02T09:47:19.336Z,51.98
2023-07-02T09:49:58.003Z,53.03
2023-07-02T09:52:25.225Z,53.37
2023-07-02T09:54:52.024Z,56.02
2023-07-02T09:57:18.937Z,52.89
2023-07-02T09:59:45.872Z,52.86
2023-07-02T10:02:13.791Z,55.33
2023-07-02T10:04:45.775Z,51.28
2023-07-02T10:07:13.117Z,52.14
2023-07-02T10:09:48.057Z,53.17
2023-07-02T10:12:28.095Z,52.09
2023-07-02T10:14:56.819Z,55.41
2023-07-02T10:17:32.340Z,56.40
2023-07-02T10:20:08.725Z,57.16
2023-07-02T10:22:45.103Z,56.33
2023-07-02T10:25:11.981Z,59.94
2023-07-02T10:27:43.161Z,59.66
2023-07-02T10:30:11.403Z,61.62
2023-07-02T10:32:39.758Z,61.73
2023-07-02T10:35:19.616Z,57.08
2023-07-02T10:37:46.609Z,62.20
2023-07-02T10:40:13.801Z,61.28
2023-07-02T10:42:51.456Z,60.06
2023-07-02T10:45:18.684Z,64.22
2023-07-02T10:47:45.913Z,64.71
2023-07-02T10:50:20.646Z,62.23
2023-07-02T10:52:48.166Z,61.68
2023-07-02T10:55:19.879Z,61.16
2023-07-02T10:57:46.912Z,60.93
2023-07-02T11:00:14.154Z,58.12
2023-07-02T11:02:41.781Z,60.40
2023-07-02T11:05:13.768Z,58.84
2023-07-02T11:07:44.371Z,59.35
2023-07-02T11:10:13.036Z,58.39
2023-07-02T11:12:39.875Z,53.86
2023-07-02T11:15:19.677Z,49.80
2023-07-02T11:17:47.133Z,47.45
2023-07-02T11:20:15.398Z,46.18
2023-07-02T11:22:42.427Z,48.05
2023-07-02T11:25:11.300Z,44.40
2023-07-02T11:27:38.547Z,43.51
2023-07-02T11:30:06.429Z,45.43
2023-07-02T11:32:37.798Z,43.58
2023-07-02T11:35:04.823Z,44.22
2023-07-02T11:37:31.628Z,44.27
2023-07-02T11:39:58.351Z,43.88
2023-07-02T11:42:25.090Z,44.72
2023-07-02T11:44:51.916Z,44.08
2023-07-02T11:47:18.649Z,43.43
2023-07-02T11:49:45.435Z,42.96
2023-07-02T11:52:13.530Z,42.49
2023-07-02T11:54:40.679Z,44.20
2023-07-02T11:57:07.899Z,43.29
2023-07-02T11:59:34.681Z,42.47
2023-07-02T12:02:01.597Z,41.83
2023-07-02T12:04:30.062Z,40.12
2023-07-02T12:06:57.084Z,40.35
2023-07-02T12:09:23.822Z,40.34
2023-07-02T12:11:51.001Z,43.37
2023-07-02T12:14:17.693Z,44.76
2023-07-02T12:16:44.452Z,43.19
2023-07-02T12:19:11.296Z,41.55
2023-07-02T12:21:37.988Z,41.73
2023-07-02T12:24:09.699Z,42.92
2023-07-02T12:26:37.203Z,40.45
2023-07-02T12:29:05.130Z,40.98
2023-07-02T12:31:32.242Z,40.93
2023-07-02T12:33:59.143Z,38.84
2023-07-02T12:36:26.075Z,39.25
2023-07-02T12:38:52.913Z,40.89
2023-07-02T12:41:19.586Z,42.22
2023-07-02T12:43:46.390Z,41.32
2023-07-02T12:46:13.229Z,40.44
2023-07-02T12:48:40.401Z,40.90
2023-07-02T12:51:07.513Z,41.75
2023-07-02T12:53:34.751Z,42.88
2023-07-02T12:56:01.945Z,42.10
2023-07-02T12:58:28.926Z,39.75
2023-07-02T13:00:56.372Z,40.71
2023-07-02T13:03:24.722Z,38.21
2023-07-02T13:05:51.883Z,37.68
2023-07-02T13:08:19.169Z,37.85
2023-07-02T13:10:46.383Z,40.83
2023-07-02T13:13:23.395Z,38.91
2023-07-02T13:15:53.705Z,39.69
2023-07-02T13:18:21.355Z,38.07
2023-07-02T13:20:48.289Z,36.94
2023-07-02T13:23:15.200Z,36.75
2023-07-02T13:25:44.806Z,36.19
2023-07-02T13:28:11.947Z,38.42
2023-07-02T13:30:38.942Z,38.17
2023-07-02T13:33:05.703Z,36.17
2023-07-02T13:35:33.288Z,35.16
2023-07-02T13:38:05.458Z,38.18
2023-07-02T13:40:32.309Z,37.89
2023-07-02T13:42:59.187Z,38.60
2023-07-02T13:45:25.953Z,36.80
2023-07-02T13:47:52.917Z,38.75
2023-07-02T13:50:21.331Z,37.92
2023-07-02T13:52:49.319Z,37.53
2023-07-02T13:55:16.749Z,38.02
2023-07-02T13:57:44.539Z,37.22
2023-07-02T14:00:12.400Z,36.76
2023-07-02T14:02:40.175Z,37.08
2023-07-02T14:05:07.606Z,38.43
2023-07-02T14:07:34.456Z,37.49
2023-07-02T14:10:02.039Z,36.05
2023-07-02T14:12:29.628Z,35.39
2023-07-02T14:14:56.985Z,37.06
2023-07-02T14:17:26.933Z,35.18
2023-07-02T14:19:54.973Z,37.39
2023-07-02T14:22:21.987Z,35.54
2023-07-02T14:24:49.653Z,35.91
2023-07-02T14:27:17.603Z,37.50
2023-07-02T14:29:44.981Z,37.95
2023-07-02T14:32:12.251Z,36.86
2023-07-02T14:34:39.497Z,38.59
2023-07-02T14:37:06.858Z,39.43
2023-07-02T14:39:33.574Z,38.86
2023-07-02T14:42:00.316Z,39.59
2023-07-02T14:44:27.271Z,38.68
2023-07-02T14:46:54.038Z,38.98
2023-07-02T14:49:21.604Z,38.61
2023-07-02T14:51:48.777Z,39.77
2023-07-02T14:54:17.515Z,39.44
2023-07-02T14:56:44.597Z,39.72
2023-07-02T14:59:11.533Z,39.79
2023-07-02T15:01:38.260Z,39.95
2023-07-02T15:04:05.311Z,40.20
2023-07-02T15:06:33.661Z,39.73
2023-07-02T15:09:00.747Z,37.70
2023-07-02T15:11:29.273Z,39.00
2023-07-02T15:13:56.264Z,39.98
2023-07-02T15:16:24.386Z,40.82
2023-07-02T15:18:51.112Z,41.23
2023-07-02T15:21:19.428Z,40.76
2023-07-02T15:23:46.232Z,40.44
2023-07-02T15:26:13.122Z,41.75
2023-07-02T15:28:39.957Z,42.33
2023-07-02T15:31:09.572Z,42.24
2023-07-02T15:33:37.189Z,41.89
2023-07-02T15:36:05.026Z,40.35
2023-07-02T15:38:32.163Z,41.87
2023-07-02T15:41:12.230Z,42.67
2023-07-02T15:43:40.696Z,43.32
2023-07-02T15:46:08.148Z,42.64
2023-07-02T15:48:34.921Z,42.76
2023-07-02T15:51:04.167Z,43.03
2023-07-02T15:53:30.901Z,43.44
2023-07-02T15:55:58.647Z,42.45
2023-07-02T15:58:27.625Z,43.88
2023-07-02T16:00:54.998Z,42.68
2023-07-02T16:03:24.571Z,42.15
2023-07-02T16:05:59.817Z,41.92
2023-07-02T16:08:26.975Z,42.02
2023-07-02T16:10:53.749Z,41.33
2023-07-02T16:13:20.624Z,41.57
2023-07-02T16:15:50.022Z,41.43
2023-07-02T16:18:18.657Z,41.55
2023-07-02T16:20:56.014Z,42.41
2023-07-02T16:23:22.914Z,41.10
2023-07-02T16:25:57.071Z,41.99
2023-07-02T16:28:23.918Z,41.32
2023-07-02T16:30:50.628Z,42.14
2023-07-02T16:33:18.485Z,42.45
2023-07-02T16:35:46.412Z,42.15
2023-07-02T16:38:13.755Z,42.43
2023-07-02T16:40:40.555Z,41.97
2023-07-02T16:43:07.906Z,41.79
2023-07-02T16:45:34.772Z,42.78
2023-07-02T16:48:04.539Z,41.01
2023-07-02T16:50:31.236Z,41.47
2023-07-02T16:52:57.848Z,41.82
2023-07-02T16:55:24.497Z,42.36
2023-07-02T16:57:51.124Z,41.78
2023-07-02T17:00:18.221Z,40.81
2023-07-02T17:02:44.951Z,39.56
2023-07-02T17:05:11.664Z,39.69
2023-07-02T17:07:38.308Z,39.89
2023-07-02T17:10:05.284Z,40.84
2023-07-02T17:12:31.932Z,41.43
2023-07-02T17:14:58.652Z,41.09
2023-07-02T17:17:28.649Z,41.70
2023-07-02T17:19:57.210Z,42.06
2023-07-02T17:22:27.568Z,41.86
2023-07-02T17:24:55.274Z,42.54
2023-07-02T17:27:24.781Z,42.97
2023-07-02T17:30:00.271Z,42.77
2023-07-02T17:32:28.858Z,43.71
2023-07-02T17:34:55.928Z,44.27
2023-07-02T17:37:23.199Z,44.27
2023-07-02T17:39:50.365Z,44.93
2023-07-02T17:42:18.777Z,44.55
2023-07-02T17:44:47.206Z,44.54
2023-07-02T17:47:16.917Z,44.45
2023-07-02T17:49:45.486Z,45.23
2023-07-02T17:52:14.848Z,43.56
2023-07-02T17:54:50.745Z,42.56
2023-07-02T17:57:19.053Z,43.33
2023-07-02T17:59:47.399Z,43.00
2023-07-02T18:02:16.210Z,43.56
2023-07-02T18:04:44.780Z,43.84
2023-07-02T18:07:17.965Z,43.63
2023-07-02T18:09:47.177Z,43.24
2023-07-02T18:12:20.040Z,45.15
2023-07-02T18:14:46.923Z,44.78
2023-07-02T18:17:13.693Z,44.51
2023-07-02T18:19:40.522Z,44.00
2023-07-02T18:22:07.580Z,44.56
2023-07-02T18:24:36.505Z,44.31
2023-07-02T18:27:04.613Z,43.51
2023-07-02T18:29:33.424Z,45.88
2023-07-02T18:32:06.385Z,45.49
2023-07-02T18:34:36.482Z,44.95
2023-07-02T18:37:04.715Z,45.24
2023-07-02T18:39:35.517Z,46.40
2023-07-02T18:42:05.447Z,45.95
2023-07-02T18:44:35.734Z,46.59
2023-07-02T18:47:10.398Z,47.57
2023-07-02T18:49:37.812Z,46.44
2023-07-02T18:52:07.433Z,47.64
2023-07-02T18:54:35.905Z,48.64
2023-07-02T18:57:04.722Z,48.42
2023-07-02T18:59:31.840Z,48.40
2023-07-02T19:02:00.087Z,48.53
2023-07-02T19:04:27.852Z,48.79
2023-07-02T19:06:57.510Z,49.01
2023-07-02T19:09:24.868Z,48.57
2023-07-02T19:11:52.357Z,49.02
2023-07-02T19:14:19.023Z,49.60
2023-07-02T19:16:46.088Z,49.37
2023-07-02T19:19:12.926Z,48.18
2023-07-02T19:21:39.589Z,50.44
2023-07-02T19:24:06.528Z,52.24
2023-07-02T19:26:33.301Z,51.82
2023-07-02T19:29:00.121Z,53.80
2023-07-02T19:31:29.007Z,53.96
2023-07-02T19:33:56.510Z,54.74
2023-07-02T19:36:23.246Z,58.00
2023-07-02T19:38:50.223Z,59.04
2023-07-02T19:41:16.921Z,58.67
2023-07-02T19:43:43.671Z,58.80
2023-07-02T19:46:10.410Z,60.48
2023-07-02T19:48:37.152Z,60.37
2023-07-02T19:51:05.661Z,61.48
2023-07-02T19:53:32.819Z,63.57
2023-07-02T19:56:00.432Z,64.43
2023-07-02T19:58:27.128Z,65.03
2023-07-02T20:00:53.861Z,64.55
2023-07-02T20:03:20.996Z,65.77
2023-07-02T20:05:49.131Z,65.32
2023-07-02T20:08:16.241Z,64.71
2023-07-02T20:10:42.921Z,65.24
2023-07-02T20:13:09.605Z,65.20
2023-07-02T20:15:36.344Z,64.33
2023-07-02T20:18:04.390Z,62.77
2023-07-02T20:20:32.110Z,63.24
2023-07-02T20:22:59.233Z,64.32
2023-07-02T20:27:58.695Z,63.67
2023-07-02T20:30:25.369Z,64.69
2023-07-02T20:32:52.291Z,65.84
2023-07-02T20:35:20.462Z,66.58
2023-07-02T20:37:52.066Z,65.77
2023-07-02T20:40:19.131Z,67.01
2023-07-02T20:42:45.816Z,67.73
2023-07-02T20:45:13.977Z,68.63
2023-07-02T20:47:42.103Z,69.20
2023-07-02T20:50:14.408Z,69.35
2023-07-02T20:52:41.882Z,69.45
2023-07-02T20:55:09.076Z,70.31
2023-07-02T20:57:35.836Z,69.05
2023-07-02T21:00:04.665Z,70.09
2023-07-02T21:02:31.412Z,71.36
2023-07-02T21:04:58.355Z,71.74
2023-07-02T21:07:26.442Z,72.91
2023-07-02T21:09:53.132Z,73.39
2023-07-02T21:12:19.913Z,73.61
2023-07-02T21:14:51.001Z,73.71
2023-07-02T21:17:17.831Z,75.88
2023-07-02T21:19:44.672Z,77.19
2023-07-02T21:22:11.410Z,77.87
2023-07-02T21:24:38.184Z,76.78
2023-07-02T21:27:05.326Z,77.40
2023-07-02T21:29:32.464Z,77.94
2023-07-02T21:31:59.264Z,79.72
2023-07-02T21:34:26.653Z,79.28
2023-07-02T21:36:53.400Z,79.04
2023-07-02T21:39:20.091Z,80.48
2023-07-02T21:41:48.578Z,81.83
2023-07-02T21:44:15.477Z,82.02
2023-07-02T21:46:42.299Z,83.01
2023-07-02T21:49:09.202Z,84.51
2023-07-02T21:51:35.899Z,85.54
2023-07-02T21:54:02.673Z,84.32
2023-07-02T21:56:29.369Z,84.39
2023-07-02T21:58:56.041Z,85.01
2023-07-02T22:01:22.740Z,84.04
2023-07-02T22:03:49.459Z,84.61
2023-07-02T22:06:16.185Z,84.48
2023-07-02T22:08:42.932Z,85.70
2023-07-02T22:11:23.175Z,85.40
2023-07-02T22:13:54.399Z,87.82
2023-07-02T22:16:21.233Z,88.02
2023-07-02T22:18:48.102Z,88.51
2023-07-02T22:21:15.035Z,88.06
2023-07-02T22:23:43.908Z,90.64
2023-07-02T22:26:10.783Z,90.79
2023-07-02T22:28:37.443Z,92.52
2023-07-02T22:31:06.515Z,94.05
2023-07-02T22:33:33.534Z,93.90
2023-07-02T22:36:00.204Z,93.33
2023-07-02T22:38:27.285Z,93.79
2023-07-02T22:40:54.035Z,93.36
2023-07-02T22:43:20.701Z,93.38
2023-07-02T22:45:47.759Z,93.28
2023-07-02T22:48:14.446Z,92.51
2023-07-02T22:50:41.148Z,94.13
2023-07-02T22:53:07.777Z,93.37
2023-07-02T22:55:34.426Z,92.98
2023-07-02T22:58:02.418Z,91.80
2023-07-02T23:00:29.357Z,93.37
2023-07-02T23:02:56.130Z,94.03
2023-07-02T23:05:23.940Z,93.70
2023-07-02T23:07:50.931Z,93.13
2023-07-02T23:10:17.925Z,92.84
2023-07-02T23:12:49.654Z,93.35
2023-07-02T23:15:19.094Z,93.50
2023-07-02T23:17:55.115Z,91.28
2023-07-02T23:20:21.996Z,91.97
2023-07-02T23:22:51.101Z,91.05
2023-07-02T23:25:24.872Z,90.57
2023-07-02T23:28:10.718Z,91.56
2023-07-02T23:30:55.164Z,91.60
2023-07-02T23:36:26.744Z,88.72
2023-07-02T23:39:00.932Z,89.55
2023-07-02T23:41:44.641Z,89.43
2023-07-02T23:44:18.893Z,90.27
2023-07-02T23:46:45.613Z,89.79
2023-07-02T23:49:12.512Z,87.26
2023-07-02T23:51:39.229Z,86.21
2023-07-02T23:54:05.896Z,86.12
2023-07-02T23:56:32.649Z,87.90
2023-07-02T23:58:59.318Z,88.66
